Time;durP1;ratioP1;P1;durP2;ratioP2;P2;SDS_P1;SDS_P2;PMS_P1;PMS_P2;Temp;Humidity;BMP_temperature;BMP_pressure;BME280_temperature;BME280_humidity;BME280_pressure;Samples;Min_cycle;Max_cycle;Signal;HPM_P1;HPM_P2
2021/10/15 00:04:13;;;;;;;0.30;0.20;;;23.10;36.30;20.60;94303.00;;;;10564135;27;75740;-63
2021/10/15 00:09:14;;;;;;;0.20;0.20;;;23.10;36.20;20.60;94288.00;;;;10563659;27;75231;-63
2021/10/15 00:14:15;;;;;;;0.50;0.32;;;23.10;36.20;20.60;94290.00;;;;10564016;27;75444;-62
2021/10/15 00:19:15;;;;;;;0.20;0.17;;;23.10;36.20;20.50;94282.00;;;;10564638;27;45371;-63
2021/10/15 00:24:16;;;;;;;0.45;0.28;;;23.10;36.20;20.60;94292.00;;;;10563588;27;75641;-64
2021/10/15 00:29:17;;;;;;;0.35;0.25;;;23.10;36.10;20.50;94284.00;;;;10564945;27;60906;-63
2021/10/15 00:34:18;;;;;;;0.30;0.30;;;23.10;36.10;20.50;94282.00;;;;10564278;27;46544;-63
2021/10/15 00:39:18;;;;;;;0.20;0.20;;;23.10;36.20;20.50;94286.00;;;;10563865;27;45354;-63
2021/10/15 00:44:19;;;;;;;0.22;0.20;;;23.10;36.10;20.50;94263.00;;;;10564251;27;75386;-63
2021/10/15 00:49:20;;;;;;;0.28;0.20;;;23.10;36.10;20.50;94281.00;;;;10562878;27;58013;-63
2021/10/15 00:54:21;;;;;;;0.20;0.17;;;23.00;36.10;20.50;94255.00;;;;10546099;27;46963;-63
2021/10/15 00:59:22;;;;;;;0.85;0.40;;;23.10;36.10;20.50;94261.00;;;;10543566;27;47449;-63
2021/10/15 01:04:23;;;;;;;0.13;0.13;;;23.10;36.00;20.50;94249.00;;;;10560474;27;45349;-63
2021/10/15 01:09:23;;;;;;;0.40;0.20;;;23.10;36.00;20.50;94256.00;;;;10544515;27;74357;-63
2021/10/15 01:14:24;;;;;;;0.40;0.30;;;23.10;36.00;20.50;94252.00;;;;10561952;27;67679;-64
2021/10/15 01:19:25;;;;;;;0.45;0.28;;;23.10;36.00;20.50;94233.00;;;;10544270;27;74068;-63
2021/10/15 01:24:26;;;;;;;0.60;0.20;;;23.10;36.00;20.50;94219.00;;;;10561716;27;74433;-63
2021/10/15 01:29:26;;;;;;;0.40;0.30;;;23.10;36.00;20.50;94232.00;;;;10562125;27;45720;-63
2021/10/15 01:34:27;;;;;;;0.30;0.30;;;23.00;35.90;20.50;94225.00;;;;10563365;27;46438;-63
2021/10/15 01:39:28;;;;;;;0.13;0.10;;;23.00;35.90;20.50;94225.00;;;;10544653;27;47281;-63
2021/10/15 01:44:29;;;;;;;0.45;0.30;;;23.10;35.90;20.50;94217.00;;;;10561846;27;74317;-63
2021/10/15 01:49:29;;;;;;;0.22;0.20;;;23.10;35.80;20.50;94200.00;;;;10562362;27;46245;-63
2021/10/15 01:54:30;;;;;;;0.20;0.20;;;23.00;35.80;20.50;94204.00;;;;10562953;27;68832;-62
2021/10/15 01:59:31;;;;;;;0.45;0.30;;;23.00;35.80;20.50;94186.00;;;;10560535;27;75707;-63
2021/10/15 02:04:31;;;;;;;0.20;0.13;;;23.10;35.80;20.50;94188.00;;;;10560585;27;75607;-63
2021/10/15 02:09:32;;;;;;;0.30;0.20;;;23.00;35.70;20.50;94171.00;;;;10559867;27;75329;-63
2021/10/15 02:14:32;;;;;;;0.20;0.20;;;23.00;35.60;20.50;94197.00;;;;10542924;27;74468;-63
2021/10/15 02:19:33;;;;;;;0.50;0.30;;;23.00;35.60;20.50;94180.00;;;;10558483;27;75614;-63
2021/10/15 02:24:34;;;;;;;0.52;0.30;;;23.00;35.60;20.50;94179.00;;;;10543892;27;46879;-63
2021/10/15 02:29:36;;;;;;;0.20;0.10;;;23.10;35.60;20.50;94170.00;;;;10542014;27;75532;-63
2021/10/15 02:34:36;;;;;;;0.30;0.28;;;23.00;35.50;20.50;94170.00;;;;10560160;27;75565;-64
2021/10/15 02:39:37;;;;;;;0.40;0.30;;;23.00;35.50;20.50;94165.00;;;;10558819;27;75507;-63
2021/10/15 02:44:38;;;;;;;0.20;0.20;;;23.00;35.50;20.50;94149.00;;;;10542458;27;53739;-63
2021/10/15 02:49:39;;;;;;;0.30;0.30;;;23.00;35.50;20.50;94140.00;;;;10558964;27;54803;-64
2021/10/15 02:54:39;;;;;;;0.30;0.20;;;23.00;35.50;20.50;94132.00;;;;10560327;27;66446;-63
2021/10/15 02:59:40;;;;;;;0.38;0.20;;;23.00;35.40;20.50;94150.00;;;;10541286;27;75093;-63
2021/10/15 03:04:41;;;;;;;0.40;0.20;;;23.00;35.50;20.50;94121.00;;;;10558040;27;75151;-63
2021/10/15 03:09:42;;;;;;;0.50;0.20;;;23.00;35.40;20.50;94142.00;;;;10558482;27;46219;-66
2021/10/15 03:14:42;;;;;;;0.40;0.35;;;23.00;35.40;20.50;94144.00;;;;10540676;27;75085;-63
2021/10/15 03:19:43;;;;;;;0.73;0.40;;;23.00;35.30;20.50;94143.00;;;;10541051;27;74658;-63
2021/10/15 03:24:44;;;;;;;0.60;0.30;;;23.00;35.20;20.40;94143.00;;;;10560103;27;52070;-63
2021/10/15 03:29:44;;;;;;;0.93;0.40;;;23.00;35.20;20.40;94142.00;;;;10559577;27;45389;-63
2021/10/15 03:34:45;;;;;;;0.60;0.35;;;23.00;35.20;20.40;94152.00;;;;10558727;27;73878;-63
2021/10/15 03:39:46;;;;;;;1.02;0.47;;;23.00;35.10;20.40;94134.00;;;;10540729;27;66434;-63
2021/10/15 03:44:47;;;;;;;0.85;0.30;;;23.00;35.00;20.40;94140.00;;;;10540048;27;74688;-63
2021/10/15 03:49:48;;;;;;;0.82;0.32;;;23.00;35.00;20.40;94125.00;;;;10556917;27;65333;-63
2021/10/15 03:54:48;;;;;;;1.00;0.55;;;23.00;34.90;20.40;94130.00;;;;10559409;27;45305;-63
2021/10/15 03:59:50;;;;;;;1.10;0.60;;;23.00;34.80;20.40;94123.00;;;;10557592;27;75886;-63
2021/10/15 04:04:51;;;;;;;0.65;0.40;;;23.00;34.90;20.40;94130.00;;;;10556898;27;75299;-63
2021/10/15 04:09:51;;;;;;;1.13;0.55;;;23.00;34.80;20.40;94120.00;;;;10557734;27;73631;-63
2021/10/15 04:14:52;;;;;;;1.77;1.00;;;23.00;34.80;20.40;94115.00;;;;10556086;27;75771;-63
2021/10/15 04:19:53;;;;;;;1.17;0.63;;;23.00;34.70;20.40;94119.00;;;;10555774;27;73331;-63
2021/10/15 04:24:54;;;;;;;1.08;0.70;;;23.00;34.70;20.40;94107.00;;;;10557225;27;45341;-63
2021/10/15 04:29:54;;;;;;;1.75;0.80;;;23.00;34.60;20.40;94098.00;;;;10558202;27;46417;-63
2021/10/15 04:34:55;;;;;;;1.38;0.70;;;23.00;34.60;20.50;94105.00;;;;10572191;27;75216;-63
2021/10/15 04:39:56;;;;;;;1.60;0.70;;;23.00;34.50;20.40;94115.00;;;;10555508;27;74673;-63
2021/10/15 04:44:56;;;;;;;1.20;0.65;;;23.00;34.50;20.40;94098.00;;;;10560496;27;75451;-63
2021/10/15 04:49:57;;;;;;;1.58;0.88;;;23.00;34.50;20.40;94090.00;;;;10561990;27;75265;-63
2021/10/15 04:54:58;;;;;;;1.23;0.70;;;23.00;34.40;20.40;94115.00;;;;10562215;27;75897;-63
2021/10/15 04:59:58;;;;;;;0.98;0.60;;;23.00;34.40;20.40;94098.00;;;;10563821;27;50333;-62
2021/10/15 05:04:59;;;;;;;0.55;0.50;;;23.00;34.40;20.40;94090.00;;;;10564332;27;74342;-63
2021/10/15 05:10:00;;;;;;;0.80;0.55;;;23.00;34.40;20.40;94091.00;;;;10564471;27;45546;-63
2021/10/15 05:15:01;;;;;;;1.00;0.60;;;23.00;34.40;20.40;94089.00;;;;10562503;27;55330;-63
2021/10/15 05:20:05;;;;;;;1.10;0.70;;;23.00;34.40;20.40;94086.00;;;;10562510;27;48155;-63
2021/10/15 05:25:08;;;;;;;1.33;0.90;;;23.00;34.40;20.40;94091.00;;;;10563167;27;47306;-63
2021/10/15 05:30:10;;;;;;;1.00;0.60;;;23.00;34.40;20.40;94079.00;;;;10561675;27;50279;-63
2021/10/15 05:35:10;;;;;;;0.70;0.50;;;23.00;34.40;20.40;94088.00;;;;10562012;27;45311;-63
2021/10/15 05:40:12;;;;;;;0.60;0.43;;;23.00;34.50;20.40;94074.00;;;;10562352;27;46637;-63
2021/10/15 05:45:14;;;;;;;0.88;0.60;;;23.00;34.60;20.40;94090.00;;;;10562169;27;48072;-63
2021/10/15 05:50:15;;;;;;;0.88;0.60;;;23.00;34.50;20.40;94076.00;;;;10561460;27;46290;-63
2021/10/15 06:00:17;;;;;;;0.90;0.70;;;23.00;34.50;20.40;94073.00;;;;10562261;27;47486;-63
2021/10/15 06:15:52;;;;;;;1.30;0.60;;;23.00;34.40;20.40;94070.00;;;;10560416;27;45427;-63
2021/10/15 06:20:53;;;;;;;1.40;0.82;;;23.00;34.40;20.40;94060.00;;;;10562096;27;45624;-63
2021/10/15 06:25:53;;;;;;;1.33;0.80;;;23.00;34.30;20.40;94053.00;;;;10560203;27;55870;-63
2021/10/15 06:30:54;;;;;;;0.98;0.70;;;22.90;34.30;20.40;94074.00;;;;10558770;27;72681;-63
2021/10/15 06:35:55;;;;;;;1.00;0.60;;;23.00;34.40;20.40;94075.00;;;;10559798;27;45591;-64
2021/10/15 06:40:56;;;;;;;1.17;0.70;;;23.00;34.40;20.40;94083.00;;;;10560794;27;45318;-63
2021/10/15 06:45:57;;;;;;;0.93;0.73;;;23.00;34.40;20.40;94085.00;;;;10561682;27;54071;-63
2021/10/15 06:50:57;;;;;;;1.17;0.80;;;23.00;34.40;20.30;94069.00;;;;10559300;27;70587;-63
2021/10/15 06:55:58;;;;;;;2.08;1.10;;;22.90;34.40;20.40;94080.00;;;;10558650;27;74564;-63
2021/10/15 07:00:58;;;;;;;1.83;1.00;;;22.90;34.40;20.40;94089.00;;;;10558518;27;74228;-63
2021/10/15 07:06:00;;;;;;;1.95;1.23;;;22.90;34.40;20.40;94090.00;;;;10557530;27;73347;-63
2021/10/15 07:11:00;;;;;;;1.92;1.30;;;22.90;34.40;20.40;94082.00;;;;10558518;27;47473;-63
2021/10/15 07:16:01;;;;;;;2.88;1.40;;;22.90;34.30;20.30;94095.00;;;;10540298;27;75398;-63
2021/10/15 07:21:02;;;;;;;2.10;1.58;;;23.00;34.40;20.40;94100.00;;;;10557693;27;67302;-63
2021/10/15 07:26:05;;;;;;;3.10;1.83;;;22.90;34.30;20.40;94094.00;;;;10558894;27;75688;-63
2021/10/15 07:31:05;;;;;;;3.05;1.90;;;22.90;34.40;20.40;94101.00;;;;10558195;27;47028;-61
2021/10/15 07:36:06;;;;;;;3.03;1.70;;;22.90;34.30;20.40;94100.00;;;;10557989;27;74247;-63
2021/10/15 07:41:07;;;;;;;2.70;1.80;;;22.90;34.30;20.40;94118.00;;;;10558709;27;61347;-61
2021/10/15 07:46:08;;;;;;;2.97;1.83;;;22.90;34.40;20.40;94120.00;;;;10558103;27;45361;-61
2021/10/15 07:51:09;;;;;;;3.22;1.67;;;23.00;34.50;20.40;94127.00;;;;10558329;27;75325;-61
2021/10/15 07:56:09;;;;;;;2.78;1.80;;;23.00;34.60;20.40;94122.00;;;;10556800;27;54955;-61
2021/10/15 08:01:10;;;;;;;3.22;1.60;;;23.00;34.70;20.40;94119.00;;;;10553037;27;72137;-62
2021/10/15 08:06:11;;;;;;;2.35;1.50;;;23.00;34.70;20.40;94120.00;;;;10556952;27;54386;-61
2021/10/15 08:11:12;;;;;;;3.92;1.60;;;23.00;34.80;20.40;94114.00;;;;10554218;27;68405;-61
2021/10/15 08:16:13;;;;;;;2.42;1.60;;;23.00;34.90;20.40;94113.00;;;;10556636;27;45545;-62
2021/10/15 08:21:15;;;;;;;2.15;1.60;;;23.00;34.90;20.40;94105.00;;;;10564041;27;74364;-62
2021/10/15 08:26:16;;;;;;;2.33;1.40;;;23.00;35.30;20.30;94120.00;;;;10562420;27;45836;-61
2021/10/15 08:31:17;;;;;;;2.05;1.23;;;23.00;35.10;20.10;94129.00;;;;10563834;27;47316;-61
2021/10/15 08:36:17;;;;;;;2.83;1.20;;;22.90;34.80;20.20;94122.00;;;;10562240;27;64853;-60
2021/10/15 08:41:23;;;;;;;2.08;1.20;;;22.90;34.80;20.20;94115.00;;;;10562548;27;75492;-61
2021/10/15 08:46:25;;;;;;;2.10;1.10;;;22.90;34.80;20.10;94108.00;;;;10564043;27;45545;-62
2021/10/15 08:51:26;;;;;;;2.03;1.20;;;22.90;34.80;20.10;94116.00;;;;10564648;27;54561;-60
2021/10/15 08:56:31;;;;;;;2.00;0.90;;;22.90;34.90;20.20;94112.00;;;;10563600;27;45581;-61
2021/10/15 09:01:45;;;;;;;1.40;1.00;;;22.90;34.90;20.10;94112.00;;;;10560494;27;47452;-60
2021/10/15 09:06:49;;;;;;;1.75;1.08;;;22.90;35.60;20.20;94103.00;;;;10562723;27;45368;-61
2021/10/15 09:11:50;;;;;;;1.70;1.10;;;22.90;34.90;20.20;94097.00;;;;10562979;27;45606;-61
2021/10/15 09:17:11;;;;;;;1.80;1.08;;;22.90;35.00;20.20;94102.00;;;;10560129;27;75343;-61
2021/10/15 09:22:18;;;;;;;2.08;1.10;;;22.90;35.00;20.20;94109.00;;;;10561829;27;46015;-60
2021/10/15 09:27:36;;;;;;;2.03;1.15;;;22.90;35.00;20.20;94106.00;;;;10560012;27;45443;-62
2021/10/15 09:32:41;;;;;;;1.52;0.93;;;22.90;35.10;20.30;94121.00;;;;10559524;27;45492;-67
2021/10/15 09:37:45;;;;;;;2.47;1.00;;;23.00;35.20;20.40;94107.00;;;;10562043;27;45405;-61
2021/10/15 09:42:48;;;;;;;1.95;1.00;;;23.00;36.00;20.40;94108.00;;;;10561607;27;45312;-60
2021/10/15 09:47:53;;;;;;;1.55;0.90;;;23.10;35.40;20.50;94109.00;;;;10561742;27;45498;-60
2021/10/15 09:53:03;;;;;;;2.75;0.80;;;23.10;35.60;20.50;94111.00;;;;10558509;27;48403;-63
2021/10/15 09:58:22;;;;;;;1.50;0.77;;;23.10;35.70;20.50;94113.00;;;;10560564;27;53930;-64
2021/10/15 10:03:26;;;;;;;1.38;0.90;;;23.20;35.70;20.50;94111.00;;;;10561747;27;46102;-62
2021/10/15 10:08:27;;;;;;;0.65;0.60;;;23.20;35.90;20.50;94097.00;;;;10558075;27;46400;-61
2021/10/15 10:13:27;;;;;;;1.95;0.93;;;23.20;35.80;20.50;94108.00;;;;10542105;27;75812;-62
2021/10/15 10:18:31;;;;;;;2.53;0.98;;;23.20;35.70;20.40;94100.00;;;;10558454;27;75929;-63
2021/10/15 10:23:37;;;;;;;1.20;0.80;;;23.10;35.50;20.40;94095.00;;;;10560580;27;47114;-62
2021/10/15 10:28:39;;;;;;;1.48;0.98;;;23.10;35.50;20.40;94089.00;;;;10559547;27;47087;-63
2021/10/15 10:33:57;;;;;;;2.15;0.93;;;23.10;35.50;20.30;94077.00;;;;10560326;27;46162;-62
2021/10/15 10:39:20;;;;;;;2.80;0.93;;;23.10;35.60;20.30;94082.00;;;;10558673;27;56856;-62
2021/10/15 10:44:21;;;;;;;2.33;0.93;;;23.10;35.60;20.40;94068.00;;;;10559320;27;46987;-62
2021/10/15 10:49:23;;;;;;;3.25;0.80;;;23.10;35.80;20.50;94060.00;;;;10559730;27;47448;-62
2021/10/15 10:54:28;;;;;;;5.32;0.93;;;23.10;35.90;20.50;94072.00;;;;10559371;27;46093;-63
2021/10/15 10:59:30;;;;;;;1.55;0.80;;;23.20;35.90;20.60;94076.00;;;;10557837;27;74535;-62
2021/10/15 11:04:48;;;;;;;4.05;0.95;;;23.20;36.10;20.60;94055.00;;;;10559952;27;45370;-62
2021/10/15 11:10:05;;;;;;;3.22;1.00;;;23.20;36.10;20.60;94072.00;;;;10559216;27;45717;-62
2021/10/15 11:15:11;;;;;;;0.82;0.68;;;23.30;36.20;20.60;94070.00;;;;10559191;27;47105;-63
2021/10/15 11:20:18;;;;;;;1.30;0.75;;;23.20;36.30;20.60;94072.00;;;;10575805;27;46442;-62
2021/10/15 11:25:21;;;;;;;3.15;0.80;;;23.30;36.70;20.60;94060.00;;;;10560617;27;45282;-62
2021/10/15 11:30:26;;;;;;;3.00;1.08;;;23.30;37.50;20.60;94048.00;;;;10559069;27;49667;-62
2021/10/15 11:35:32;;;;;;;2.38;0.70;;;23.30;38.00;20.60;94047.00;;;;10557432;27;48053;-62
2021/10/15 11:40:43;;;;;;;1.63;0.85;;;23.30;38.50;20.60;94040.00;;;;10558259;27;45601;-62
2021/10/15 11:45:55;;;;;;;2.47;1.00;;;23.30;39.00;20.60;94026.00;;;;10557733;27;53590;-62
2021/10/15 11:51:01;;;;;;;2.22;0.77;;;23.30;39.80;20.60;94023.00;;;;10559379;27;45369;-63
2021/10/15 11:56:05;;;;;;;3.40;0.70;;;23.30;39.70;20.60;94027.00;;;;10565701;27;45500;-63
2021/10/15 12:01:20;;;;;;;3.38;1.05;;;23.30;40.30;20.60;94012.00;;;;10565010;27;45366;-63
2021/10/15 12:06:27;;;;;;;3.90;0.77;;;23.30;40.80;20.60;94023.00;;;;10547352;27;46961;-62
2021/10/15 12:11:34;;;;;;;3.40;0.80;;;23.30;41.30;20.60;94012.00;;;;10566045;27;46260;-62
2021/10/15 12:16:47;;;;;;;2.00;0.70;;;23.40;40.80;20.70;94028.00;;;;10565886;27;45616;-62
2021/10/15 12:21:55;;;;;;;2.55;0.77;;;23.30;42.70;20.70;94011.00;;;;10566315;27;45341;-62
2021/10/15 12:27:21;;;;;;;1.80;0.50;;;23.40;43.00;20.80;94015.00;;;;10565623;27;45373;-62
2021/10/15 12:32:33;;;;;;;1.80;0.70;;;23.40;43.00;20.80;93999.00;;;;10564024;27;47841;-63
2021/10/15 12:37:41;;;;;;;1.30;0.65;;;23.40;43.10;20.90;93994.00;;;;10599412;27;46027;-62
2021/10/15 12:42:46;;;;;;;3.75;0.77;;;23.50;43.30;20.80;93981.00;;;;10607331;27;46424;-63
2021/10/15 12:48:01;;;;;;;0.88;0.52;;;23.50;42.00;20.80;93993.00;;;;10606497;27;46792;-63
2021/10/15 12:53:50;;;;;;;2.97;0.60;;;23.40;42.50;20.70;93977.00;;;;10607113;27;45528;-63
2021/10/15 12:58:52;;;;;;;4.53;0.60;;;23.40;42.60;20.70;93998.00;;;;10595869;27;45376;-63
2021/10/15 13:03:55;;;;;;;7.13;0.80;;;23.40;42.30;20.70;93990.00;;;;10605559;27;45241;-63
2021/10/15 13:08:57;;;;;;;4.28;0.73;;;23.40;43.20;20.70;93999.00;;;;10599229;27;46235;-64
2021/10/15 13:13:58;;;;;;;2.35;0.70;;;23.40;43.00;20.70;93982.00;;;;10553886;27;47581;-63
2021/10/15 13:19:00;;;;;;;1.67;0.60;;;23.40;42.50;20.70;93979.00;;;;10558944;27;67012;-63
2021/10/15 13:24:04;;;;;;;4.88;0.52;;;23.40;43.00;20.70;93960.00;;;;10543588;27;75077;-63
2021/10/15 13:29:05;;;;;;;1.50;0.55;;;23.40;42.30;20.70;93974.00;;;;10545021;27;47434;-63
2021/10/15 13:34:06;;;;;;;1.83;0.75;;;23.40;43.10;20.60;93974.00;;;;10563228;27;52515;-63
2021/10/15 13:39:08;;;;;;;1.92;0.70;;;23.30;43.30;20.60;93975.00;;;;10544910;27;48092;-63
2021/10/15 13:44:39;;;;;;;2.35;0.80;;;23.30;42.10;20.60;93973.00;;;;10562154;27;45458;-63
2021/10/15 13:49:49;;;;;;;1.27;0.57;;;23.30;42.20;20.60;93972.00;;;;10561804;27;45374;-63
2021/10/15 13:54:51;;;;;;;1.15;0.63;;;23.40;42.70;20.50;93957.00;;;;10561871;27;45341;-63
2021/10/15 14:00:08;;;;;;;1.73;0.77;;;23.30;42.20;20.50;93968.00;;;;10561367;27;46295;-63
2021/10/15 14:05:09;;;;;;;1.42;0.60;;;23.30;42.00;20.60;93953.00;;;;10546549;27;47138;-63
2021/10/15 14:10:09;;;;;;;1.85;0.60;;;23.20;41.60;20.60;93965.00;;;;10560687;27;45314;-63
2021/10/15 14:15:10;;;;;;;3.33;0.60;;;23.30;41.80;20.60;93967.00;;;;10541347;27;75628;-62
2021/10/15 14:20:11;;;;;;;2.60;0.70;;;23.20;42.00;20.60;93965.00;;;;10559945;27;62157;-62
2021/10/15 14:25:12;;;;;;;0.70;0.50;;;23.20;42.50;20.60;93975.00;;;;10560495;27;47097;-62
2021/10/15 14:30:13;;;;;;;0.98;0.52;;;23.30;42.40;20.60;93963.00;;;;10539291;27;75198;-63
2021/10/15 14:35:13;;;;;;;2.05;0.60;;;23.30;43.00;20.70;93971.00;;;;10583754;27;74627;-63
2021/10/15 14:40:15;;;;;;;0.50;0.45;;;23.40;42.30;20.60;93978.00;;;;10602037;27;73957;-63
2021/10/15 14:45:16;;;;;;;2.28;0.57;;;23.40;42.70;20.60;93961.00;;;;10603355;27;45392;-64
2021/10/15 14:50:17;;;;;;;2.10;0.32;;;23.30;42.90;20.70;93950.00;;;;10585955;27;48086;-65
2021/10/15 14:55:17;;;;;;;0.90;0.60;;;23.30;43.30;20.70;93950.00;;;;10565089;27;73457;-65
2021/10/15 15:00:19;;;;;;;0.90;0.60;;;23.40;42.90;20.70;93973.00;;;;10585306;27;75918;-64
2021/10/15 15:05:20;;;;;;;0.82;0.40;;;23.40;42.40;20.70;93967.00;;;;10597118;27;45329;-59
2021/10/15 15:10:21;;;;;;;1.92;0.40;;;23.40;42.60;20.70;93964.00;;;;10557363;27;74990;-61
2021/10/15 15:15:22;;;;;;;1.05;0.50;;;23.40;43.10;20.70;93978.00;;;;10559308;27;46421;-61
2021/10/15 15:20:23;;;;;;;0.73;0.40;;;23.40;43.00;20.70;93978.00;;;;10557073;27;74659;-61
2021/10/15 15:25:24;;;;;;;0.55;0.55;;;23.30;42.70;20.60;93965.00;;;;10559889;27;46066;-62
2021/10/15 15:30:25;;;;;;;1.38;0.47;;;23.40;42.60;20.60;93981.00;;;;10559567;27;46027;-62
2021/10/15 15:35:26;;;;;;;0.98;0.50;;;23.40;42.70;20.60;93972.00;;;;10558350;27;46976;-62
2021/10/15 15:40:28;;;;;;;1.48;0.43;;;23.30;42.80;20.60;93961.00;;;;10553923;27;46420;-62
2021/10/15 15:45:28;;;;;;;1.65;0.52;;;23.30;42.40;20.50;93976.00;;;;10555148;27;75662;-62
2021/10/15 15:50:29;;;;;;;2.30;0.57;;;23.30;42.70;20.60;93957.00;;;;10557847;27;46244;-61
2021/10/15 15:55:30;;;;;;;0.40;0.40;;;23.20;42.40;20.50;93977.00;;;;10557820;27;45588;-62
2021/10/15 16:00:30;;;;;;;1.05;0.60;;;23.30;42.10;20.50;93965.00;;;;10557250;27;75639;-62
2021/10/15 16:05:35;;;;;;;0.80;0.40;;;23.30;42.30;20.50;93975.00;;;;10538566;27;74410;-61
2021/10/15 16:10:37;;;;;;;0.47;0.30;;;23.20;42.30;20.50;93972.00;;;;10555367;27;46299;-62
2021/10/15 16:15:40;;;;;;;0.80;0.60;;;23.20;42.10;20.50;93979.00;;;;10555268;27;45522;-62
2021/10/15 16:20:41;;;;;;;0.57;0.45;;;23.20;42.10;20.50;93974.00;;;;10539660;27;47055;-62
2021/10/15 16:25:42;;;;;;;1.05;0.43;;;23.20;41.90;20.50;93956.00;;;;10556019;27;46368;-62
2021/10/15 16:30:43;;;;;;;1.13;0.50;;;23.20;41.90;20.50;93974.00;;;;10555927;27;45737;-61
2021/10/15 16:35:44;;;;;;;1.00;0.60;;;23.20;41.70;20.40;93976.00;;;;10556345;27;58545;-62
2021/10/15 16:40:44;;;;;;;0.90;0.60;;;23.20;41.60;20.50;93975.00;;;;10541065;27;48355;-61
2021/10/15 16:45:45;;;;;;;2.83;0.50;;;23.20;41.50;20.50;93988.00;;;;10562403;27;75334;-62
2021/10/15 16:50:46;;;;;;;0.93;0.52;;;23.20;41.30;20.50;93989.00;;;;10562303;27;62797;-62
2021/10/15 16:55:47;;;;;;;0.60;0.50;;;23.20;41.30;20.40;93984.00;;;;10561735;27;45359;-62
2021/10/15 17:00:47;;;;;;;0.70;0.50;;;23.10;41.20;20.40;93988.00;;;;10562066;27;63976;-61
2021/10/15 17:05:48;;;;;;;0.45;0.40;;;23.10;41.10;20.40;93995.00;;;;10562109;27;74739;-61
2021/10/15 17:10:49;;;;;;;0.80;0.60;;;23.10;41.10;20.40;94008.00;;;;10561367;27;61732;-61
2021/10/15 17:15:50;;;;;;;0.55;0.43;;;23.10;41.10;20.40;93998.00;;;;10562019;27;45464;-61
2021/10/15 17:20:50;;;;;;;0.80;0.50;;;23.10;41.00;20.40;94003.00;;;;10560873;27;74544;-62
2021/10/15 17:25:51;;;;;;;0.70;0.40;;;23.10;41.00;20.40;94013.00;;;;10563425;27;46329;-61
2021/10/15 17:30:53;;;;;;;0.82;0.50;;;23.10;41.00;20.40;94016.00;;;;10559299;27;76358;-62
2021/10/15 17:35:53;;;;;;;0.75;0.40;;;23.10;41.00;20.40;94015.00;;;;10560989;27;75516;-62
2021/10/15 17:40:56;;;;;;;1.23;0.60;;;23.10;40.90;20.40;94025.00;;;;10560041;27;75941;-61
2021/10/15 17:45:57;;;;;;;0.47;0.47;;;23.10;40.90;20.40;94029.00;;;;10542810;27;47467;-62
2021/10/15 17:50:58;;;;;;;1.70;0.70;;;23.10;40.90;20.40;94039.00;;;;10561152;27;46127;-62
2021/10/15 17:55:59;;;;;;;0.68;0.38;;;23.10;40.90;20.40;94030.00;;;;10542009;27;48122;-61
2021/10/15 18:01:00;;;;;;;1.33;0.40;;;23.00;40.80;20.40;94034.00;;;;10559281;27;74517;-61
2021/10/15 18:06:01;;;;;;;0.80;0.60;;;23.10;40.80;20.40;94036.00;;;;10559163;27;58336;-61
2021/10/15 18:11:02;;;;;;;0.50;0.50;;;23.10;40.80;20.40;94033.00;;;;10560835;27;48034;-64
2021/10/15 18:16:04;;;;;;;0.70;0.50;;;23.10;40.80;20.40;94051.00;;;;10543197;27;47614;-63
2021/10/15 18:21:04;;;;;;;0.50;0.47;;;23.10;40.70;20.40;94045.00;;;;10560543;27;45361;-63
2021/10/15 18:26:05;;;;;;;2.00;0.65;;;23.10;40.70;20.30;94037.00;;;;10543051;27;50648;-64
2021/10/15 18:31:06;;;;;;;1.30;0.40;;;23.10;40.80;20.30;94067.00;;;;10559991;27;68261;-63
2021/10/15 18:36:07;;;;;;;0.82;0.40;;;23.00;40.70;20.40;94076.00;;;;10542373;27;47183;-63
2021/10/15 18:41:07;;;;;;;0.50;0.50;;;23.00;40.70;20.30;94066.00;;;;10542642;27;47136;-63
2021/10/15 18:46:08;;;;;;;0.60;0.43;;;23.10;40.70;20.30;94079.00;;;;10542115;27;63475;-64
2021/10/15 18:51:09;;;;;;;1.33;0.60;;;23.00;40.70;20.30;94079.00;;;;10560235;27;74652;-63
2021/10/15 18:56:10;;;;;;;0.45;0.45;;;23.00;40.60;20.40;94086.00;;;;10557257;27;60177;-64
2021/10/15 19:01:10;;;;;;;0.57;0.50;;;23.00;40.60;20.30;94083.00;;;;10540806;27;68582;-63
2021/10/15 19:06:11;;;;;;;0.63;0.47;;;23.00;40.60;20.30;94092.00;;;;10541830;27;47891;-64
2021/10/15 19:11:12;;;;;;;0.90;0.52;;;23.00;40.60;20.30;94088.00;;;;10559080;27;75590;-66
2021/10/15 19:16:13;;;;;;;0.63;0.45;;;23.10;40.60;20.30;94100.00;;;;10560664;27;46174;-64
2021/10/15 19:21:14;;;;;;;0.43;0.43;;;23.10;40.60;20.30;94086.00;;;;10560632;27;45484;-63
2021/10/15 19:26:17;;;;;;;0.60;0.50;;;23.00;40.60;20.30;94078.00;;;;10560106;27;45561;-64
2021/10/15 19:31:18;;;;;;;0.50;0.50;;;23.00;40.60;20.30;94090.00;;;;10559662;27;45593;-64
2021/10/15 19:36:19;;;;;;;0.60;0.50;;;23.00;40.50;20.30;94097.00;;;;10558205;27;45353;-63
2021/10/15 19:41:19;;;;;;;0.73;0.45;;;23.00;40.50;20.30;94091.00;;;;10557476;27;74547;-63
2021/10/15 19:46:27;;;;;;;0.65;0.38;;;23.00;40.50;20.30;94090.00;;;;10558463;27;74585;-64
2021/10/15 19:51:28;;;;;;;0.65;0.47;;;23.00;40.50;20.30;94083.00;;;;10558135;27;46477;-63
2021/10/15 19:56:29;;;;;;;0.60;0.50;;;23.10;40.50;20.30;94095.00;;;;10540166;27;47131;-64
2021/10/15 20:01:31;;;;;;;0.30;0.30;;;23.00;40.50;20.30;94102.00;;;;10540044;27;49944;-62
2021/10/15 20:06:31;;;;;;;0.80;0.60;;;23.00;40.50;20.30;94097.00;;;;10556828;27;45681;-63
2021/10/15 20:11:38;;;;;;;0.65;0.50;;;23.00;40.40;20.30;94094.00;;;;10555494;27;75276;-64
2021/10/15 20:16:39;;;;;;;;;;;23.00;40.50;20.30;94093.00;;;;10563608;27;46417;-63
2021/10/15 20:21:39;;;;;;;0.93;0.60;;;23.10;40.40;20.30;94099.00;;;;10546578;27;48084;-64
2021/10/15 20:26:41;;;;;;;0.95;0.70;;;23.00;40.20;20.30;94084.00;;;;10563571;27;74565;-63
2021/10/15 20:31:41;;;;;;;0.75;0.68;;;23.00;40.20;20.30;94101.00;;;;10561365;27;54486;-64
2021/10/15 20:36:42;;;;;;;0.77;0.63;;;23.00;40.10;20.20;94093.00;;;;10558929;27;75559;-63
2021/10/15 20:41:43;;;;;;;0.63;0.60;;;23.00;40.10;20.30;94095.00;;;;10564117;27;47473;-63
2021/10/15 20:46:43;;;;;;;0.85;0.60;;;23.00;39.90;20.20;94109.00;;;;10563595;27;63577;-63
2021/10/15 20:51:44;;;;;;;0.93;0.80;;;23.00;39.90;20.20;94098.00;;;;10545901;27;75494;-64
2021/10/15 20:56:46;;;;;;;0.85;0.68;;;23.00;39.80;20.20;94110.00;;;;10563945;27;75404;-63
2021/10/15 21:01:47;;;;;;;1.30;0.60;;;23.00;39.80;20.20;94092.00;;;;10565288;27;46077;-64
2021/10/15 21:06:48;;;;;;;1.05;0.70;;;22.90;39.60;20.20;94096.00;;;;10563305;27;46634;-64
2021/10/15 21:11:49;;;;;;;0.52;0.50;;;23.00;39.60;20.20;94107.00;;;;10564491;27;53824;-63
2021/10/15 21:16:49;;;;;;;1.30;0.73;;;22.90;39.50;20.20;94096.00;;;;10562056;27;73270;-63
2021/10/15 21:21:50;;;;;;;1.33;0.60;;;23.00;39.40;20.20;94098.00;;;;10562274;27;75158;-63
2021/10/15 21:26:51;;;;;;;0.70;0.60;;;23.00;39.40;20.20;94093.00;;;;10562512;27;75856;-64
2021/10/15 21:31:51;;;;;;;1.40;0.73;;;22.90;39.30;20.20;94092.00;;;;10561872;27;75576;-63
2021/10/15 21:36:52;;;;;;;1.10;0.80;;;23.00;39.30;20.20;94081.00;;;;10543747;27;53709;-64
2021/10/15 21:41:53;;;;;;;0.88;0.60;;;22.90;39.20;20.20;94077.00;;;;10561769;27;68667;-63
2021/10/15 21:46:54;;;;;;;1.33;0.75;;;23.00;39.20;20.20;94098.00;;;;10560578;27;61267;-63
2021/10/15 21:51:55;;;;;;;1.27;0.80;;;22.90;39.10;20.20;94114.00;;;;10561856;27;61511;-63
2021/10/15 21:56:55;;;;;;;1.00;0.70;;;22.90;39.10;20.20;94086.00;;;;10560664;27;74405;-63
2021/10/15 22:01:56;;;;;;;0.82;0.60;;;22.90;39.00;20.20;94084.00;;;;10560868;27;74396;-63
2021/10/15 22:06:59;;;;;;;0.88;0.70;;;22.90;39.00;20.20;94098.00;;;;10561889;27;46434;-63
2021/10/15 22:12:01;;;;;;;1.63;0.70;;;22.90;39.00;20.20;94101.00;;;;10543979;27;47500;-63
2021/10/15 22:17:02;;;;;;;0.88;0.50;;;23.00;39.00;20.20;94101.00;;;;10560043;27;45505;-63
2021/10/15 22:22:03;;;;;;;0.60;0.60;;;23.00;38.90;20.20;94115.00;;;;10560717;27;50874;-63
2021/10/15 22:27:04;;;;;;;2.05;0.68;;;22.90;38.80;20.20;94093.00;;;;10560280;27;48786;-63